ΕΜΥ, Εθνική Μετεωρολογική Υπηρεσία - Δελτία Καιρού, Προγνώσεις

ΑΕΡΟΝΑΥΤΙΛΙΑ

GREEK AIRPORTS CODES

LGTP 011200Z 21012KT 9999 SCT025 SCT040 13/06 Q1011 RMK BKN080=

EUROPEAN AIRPORTS CODES

LEMD 011200Z 36003KT 330V050 9999 FEW015 SCT030TCU BKN04010/08 Q1012 RERA R88/29//95 NOSIG=